YMT weather

Chapais Airport
Chibougamau, Quebec, Canada

Public forecast

Using degrees Celsius for public forecast. Weather courtesy of forecast.io.

Current aviation weather report (METAR) for Chapais Airport

Retrieved 2020/06/05 11:33 UTC (19 minutes ago):

CYMT 051133Z AUTO 22002KT 9SM -RA OVC026 05/03 A2973 RMK SLP078

Aviation forecast (TAF) for Chapais Airport

Forecast is more than 12 hours old.

Retrieved 2020/06/04 18:00 UTC (18 hours ago):

TAF CYMT 041738Z 0418/0424 27015G30KT P6SM SCT050 RMK FCST BASED ON AUTO OBS NXT FCST WILL BE ISSUED AT 051145Z